sensor_id;sensor_type;location;lat;lon;timestamp;P1;durP1;ratioP1;P2;durP2;ratioP2
18623;SDS011;9441;51.420;7.036;2023-08-06T00:00:55;8.90;;;5.95;;
18623;SDS011;9441;51.420;7.036;2023-08-06T00:01:58;12.30;;;6.15;;
18623;SDS011;9441;51.420;7.036;2023-08-06T00:03:00;10.15;;;6.28;;
18623;SDS011;9441;51.420;7.036;2023-08-06T00:04:02;9.35;;;6.50;;
18623;SDS011;9441;51.420;7.036;2023-08-06T00:05:04;8.40;;;5.50;;
18623;SDS011;9441;51.420;7.036;2023-08-06T00:06:06;13.07;;;6.13;;
18623;SDS011;9441;51.420;7.036;2023-08-06T00:07:08;13.63;;;5.40;;
18623;SDS011;9441;51.420;7.036;2023-08-06T00:08:09;6.90;;;5.07;;
18623;SDS011;9441;51.420;7.036;2023-08-06T00:09:11;9.55;;;5.32;;
18623;SDS011;9441;51.420;7.036;2023-08-06T00:10:13;11.17;;;5.53;;
18623;SDS011;9441;51.420;7.036;2023-08-06T00:11:15;6.40;;;5.30;;
18623;SDS011;9441;51.420;7.036;2023-08-06T00:12:17;10.73;;;6.00;;
18623;SDS011;9441;51.420;7.036;2023-08-06T00:13:18;7.72;;;5.57;;
18623;SDS011;9441;51.420;7.036;2023-08-06T00:14:20;9.93;;;5.13;;
18623;SDS011;9441;51.420;7.036;2023-08-06T00:15:22;8.83;;;5.20;;
18623;SDS011;9441;51.420;7.036;2023-08-06T00:16:23;9.87;;;5.70;;
18623;SDS011;9441;51.420;7.036;2023-08-06T00:17:27;6.60;;;4.90;;
18623;SDS011;9441;51.420;7.036;2023-08-06T00:18:28;10.27;;;5.35;;
18623;SDS011;9441;51.420;7.036;2023-08-06T00:19:30;7.53;;;5.28;;
18623;SDS011;9441;51.420;7.036;2023-08-06T00:20:32;10.83;;;4.97;;
18623;SDS011;9441;51.420;7.036;2023-08-06T00:21:33;9.98;;;4.80;;
18623;SDS011;9441;51.420;7.036;2023-08-06T00:22:36;10.43;;;4.80;;
18623;SDS011;9441;51.420;7.036;2023-08-06T00:23:37;7.35;;;4.60;;
18623;SDS011;9441;51.420;7.036;2023-08-06T00:24:40;10.27;;;4.97;;
18623;SDS011;9441;51.420;7.036;2023-08-06T00:25:41;7.80;;;4.77;;
18623;SDS011;9441;51.420;7.036;2023-08-06T00:26:43;8.30;;;4.65;;
18623;SDS011;9441;51.420;7.036;2023-08-06T00:27:45;12.43;;;4.87;;
18623;SDS011;9441;51.420;7.036;2023-08-06T00:28:47;8.87;;;5.00;;
18623;SDS011;9441;51.420;7.036;2023-08-06T00:29:48;9.93;;;4.70;;
18623;SDS011;9441;51.420;7.036;2023-08-06T00:30:52;8.50;;;4.23;;
18623;SDS011;9441;51.420;7.036;2023-08-06T00:31:54;10.37;;;4.93;;
18623;SDS011;9441;51.420;7.036;2023-08-06T00:32:57;7.40;;;4.90;;
18623;SDS011;9441;51.420;7.036;2023-08-06T00:33:59;10.37;;;4.47;;
18623;SDS011;9441;51.420;7.036;2023-08-06T00:35:01;5.97;;;4.50;;
18623;SDS011;9441;51.420;7.036;2023-08-06T00:36:03;10.10;;;4.57;;
18623;SDS011;9441;51.420;7.036;2023-08-06T00:37:05;7.87;;;4.80;;
18623;SDS011;9441;51.420;7.036;2023-08-06T00:38:07;7.25;;;4.70;;
18623;SDS011;9441;51.420;7.036;2023-08-06T00:39:09;13.75;;;4.60;;
18623;SDS011;9441;51.420;7.036;2023-08-06T00:40:11;9.20;;;4.75;;
18623;SDS011;9441;51.420;7.036;2023-08-06T00:41:13;8.27;;;4.67;;
18623;SDS011;9441;51.420;7.036;2023-08-06T00:42:14;7.45;;;4.93;;
18623;SDS011;9441;51.420;7.036;2023-08-06T00:43:20;9.83;;;4.80;;
18623;SDS011;9441;51.420;7.036;2023-08-06T00:44:22;6.28;;;4.25;;
18623;SDS011;9441;51.420;7.036;2023-08-06T00:45:24;7.60;;;4.68;;
18623;SDS011;9441;51.420;7.036;2023-08-06T00:46:26;8.97;;;5.03;;
18623;SDS011;9441;51.420;7.036;2023-08-06T00:47:28;8.10;;;4.77;;
18623;SDS011;9441;51.420;7.036;2023-08-06T00:48:31;8.68;;;4.50;;
18623;SDS011;9441;51.420;7.036;2023-08-06T00:49:34;6.93;;;4.60;;
18623;SDS011;9441;51.420;7.036;2023-08-06T00:50:35;10.20;;;4.63;;
18623;SDS011;9441;51.420;7.036;2023-08-06T00:51:37;6.80;;;4.60;;
18623;SDS011;9441;51.420;7.036;2023-08-06T00:52:39;11.35;;;4.50;;
18623;SDS011;9441;51.420;7.036;2023-08-06T00:53:41;9.00;;;4.70;;
18623;SDS011;9441;51.420;7.036;2023-08-06T00:54:43;6.70;;;4.70;;
18623;SDS011;9441;51.420;7.036;2023-08-06T00:55:45;11.90;;;4.50;;
18623;SDS011;9441;51.420;7.036;2023-08-06T00:56:47;7.73;;;4.70;;
18623;SDS011;9441;51.420;7.036;2023-08-06T00:57:48;11.53;;;4.83;;
18623;SDS011;9441;51.420;7.036;2023-08-06T00:58:51;9.97;;;4.77;;
18623;SDS011;9441;51.420;7.036;2023-08-06T00:59:54;8.10;;;4.77;;
18623;SDS011;9441;51.420;7.036;2023-08-06T01:00:55;9.02;;;4.60;;
18623;SDS011;9441;51.420;7.036;2023-08-06T01:01:58;9.77;;;4.20;;
18623;SDS011;9441;51.420;7.036;2023-08-06T01:03:00;8.65;;;4.45;;
18623;SDS011;9441;51.420;7.036;2023-08-06T01:04:03;12.40;;;4.57;;
18623;SDS011;9441;51.420;7.036;2023-08-06T01:05:06;8.30;;;4.50;;
18623;SDS011;9441;51.420;7.036;2023-08-06T01:06:07;8.68;;;4.88;;
18623;SDS011;9441;51.420;7.036;2023-08-06T01:07:12;7.50;;;4.67;;
18623;SDS011;9441;51.420;7.036;2023-08-06T01:08:19;10.60;;;4.68;;
18623;SDS011;9441;51.420;7.036;2023-08-06T01:09:28;7.27;;;4.53;;
18623;SDS011;9441;51.420;7.036;2023-08-06T01:10:34;7.13;;;4.70;;
18623;SDS011;9441;51.420;7.036;2023-08-06T01:11:41;7.83;;;4.80;;
18623;SDS011;9441;51.420;7.036;2023-08-06T01:12:45;7.20;;;3.90;;
18623;SDS011;9441;51.420;7.036;2023-08-06T01:13:50;7.70;;;5.03;;
18623;SDS011;9441;51.420;7.036;2023-08-06T01:14:57;5.82;;;4.40;;
18623;SDS011;9441;51.420;7.036;2023-08-06T01:16:02;9.63;;;4.30;;
18623;SDS011;9441;51.420;7.036;2023-08-06T01:17:05;9.95;;;5.00;;
18623;SDS011;9441;51.420;7.036;2023-08-06T01:18:09;8.25;;;4.25;;
18623;SDS011;9441;51.420;7.036;2023-08-06T01:19:16;6.07;;;4.25;;
18623;SDS011;9441;51.420;7.036;2023-08-06T01:20:18;8.52;;;4.35;;
18623;SDS011;9441;51.420;7.036;2023-08-06T01:21:22;8.80;;;4.53;;
18623;SDS011;9441;51.420;7.036;2023-08-06T01:22:23;6.75;;;4.60;;
18623;SDS011;9441;51.420;7.036;2023-08-06T01:23:26;11.13;;;4.90;;
18623;SDS011;9441;51.420;7.036;2023-08-06T01:24:27;13.05;;;5.10;;
18623;SDS011;9441;51.420;7.036;2023-08-06T01:25:30;7.20;;;4.63;;
18623;SDS011;9441;51.420;7.036;2023-08-06T01:26:36;10.02;;;5.10;;
18623;SDS011;9441;51.420;7.036;2023-08-06T01:27:43;9.13;;;4.47;;
18623;SDS011;9441;51.420;7.036;2023-08-06T01:28:47;5.90;;;4.60;;
18623;SDS011;9441;51.420;7.036;2023-08-06T01:29:53;8.40;;;5.10;;
18623;SDS011;9441;51.420;7.036;2023-08-06T01:30:56;9.33;;;4.90;;
18623;SDS011;9441;51.420;7.036;2023-08-06T01:32:00;9.83;;;5.07;;
18623;SDS011;9441;51.420;7.036;2023-08-06T01:33:03;9.32;;;4.50;;
18623;SDS011;9441;51.420;7.036;2023-08-06T01:34:07;7.97;;;4.75;;
18623;SDS011;9441;51.420;7.036;2023-08-06T01:35:11;7.53;;;4.87;;
18623;SDS011;9441;51.420;7.036;2023-08-06T01:36:14;6.30;;;4.33;;
18623;SDS011;9441;51.420;7.036;2023-08-06T01:37:18;15.13;;;5.13;;
18623;SDS011;9441;51.420;7.036;2023-08-06T01:38:20;7.80;;;4.77;;
18623;SDS011;9441;51.420;7.036;2023-08-06T01:39:21;7.35;;;4.70;;
18623;SDS011;9441;51.420;7.036;2023-08-06T01:40:23;7.47;;;4.63;;
18623;SDS011;9441;51.420;7.036;2023-08-06T01:41:27;7.13;;;4.47;;
18623;SDS011;9441;51.420;7.036;2023-08-06T01:42:28;9.80;;;4.63;;
18623;SDS011;9441;51.420;7.036;2023-08-06T01:43:31;8.23;;;4.15;;
18623;SDS011;9441;51.420;7.036;2023-08-06T01:44:32;8.10;;;4.80;;
18623;SDS011;9441;51.420;7.036;2023-08-06T01:45:34;7.90;;;4.37;;
18623;SDS011;9441;51.420;7.036;2023-08-06T01:46:36;10.00;;;4.70;;
18623;SDS011;9441;51.420;7.036;2023-08-06T01:47:38;7.10;;;4.40;;
18623;SDS011;9441;51.420;7.036;2023-08-06T01:48:40;5.97;;;4.55;;
18623;SDS011;9441;51.420;7.036;2023-08-06T01:49:42;6.97;;;4.33;;
18623;SDS011;9441;51.420;7.036;2023-08-06T01:50:43;10.43;;;4.43;;
18623;SDS011;9441;51.420;7.036;2023-08-06T01:51:46;6.85;;;4.47;;
18623;SDS011;9441;51.420;7.036;2023-08-06T01:52:49;8.20;;;4.57;;
18623;SDS011;9441;51.420;7.036;2023-08-06T01:53:52;6.93;;;4.35;;
18623;SDS011;9441;51.420;7.036;2023-08-06T01:54:54;8.65;;;4.28;;
18623;SDS011;9441;51.420;7.036;2023-08-06T01:55:56;8.30;;;4.43;;
18623;SDS011;9441;51.420;7.036;2023-08-06T01:56:57;8.02;;;4.60;;
18623;SDS011;9441;51.420;7.036;2023-08-06T01:58:00;7.25;;;4.50;;
18623;SDS011;9441;51.420;7.036;2023-08-06T01:59:01;7.75;;;4.65;;
18623;SDS011;9441;51.420;7.036;2023-08-06T02:00:03;7.47;;;4.47;;
18623;SDS011;9441;51.420;7.036;2023-08-06T02:01:13;6.30;;;4.47;;
18623;SDS011;9441;51.420;7.036;2023-08-06T02:02:15;6.90;;;4.50;;
18623;SDS011;9441;51.420;7.036;2023-08-06T02:03:16;9.20;;;4.50;;
18623;SDS011;9441;51.420;7.036;2023-08-06T02:04:22;10.70;;;4.60;;
18623;SDS011;9441;51.420;7.036;2023-08-06T02:05:24;11.02;;;4.63;;
18623;SDS011;9441;51.420;7.036;2023-08-06T02:06:27;6.40;;;4.27;;
18623;SDS011;9441;51.420;7.036;2023-08-06T02:07:28;7.90;;;4.80;;
18623;SDS011;9441;51.420;7.036;2023-08-06T02:08:33;7.78;;;4.32;;
18623;SDS011;9441;51.420;7.036;2023-08-06T02:09:34;12.83;;;4.73;;
18623;SDS011;9441;51.420;7.036;2023-08-06T02:10:36;5.78;;;4.60;;
18623;SDS011;9441;51.420;7.036;2023-08-06T02:11:38;8.10;;;4.57;;
18623;SDS011;9441;51.420;7.036;2023-08-06T02:12:40;7.30;;;4.20;;
18623;SDS011;9441;51.420;7.036;2023-08-06T02:13:41;7.68;;;4.60;;
18623;SDS011;9441;51.420;7.036;2023-08-06T02:14:44;8.18;;;5.00;;
18623;SDS011;9441;51.420;7.036;2023-08-06T02:15:45;7.97;;;4.65;;
18623;SDS011;9441;51.420;7.036;2023-08-06T02:16:48;8.63;;;4.80;;
18623;SDS011;9441;51.420;7.036;2023-08-06T02:17:50;9.20;;;4.80;;
18623;SDS011;9441;51.420;7.036;2023-08-06T02:18:52;8.18;;;4.38;;
18623;SDS011;9441;51.420;7.036;2023-08-06T02:20:01;9.07;;;4.55;;
18623;SDS011;9441;51.420;7.036;2023-08-06T02:21:05;8.23;;;4.55;;
18623;SDS011;9441;51.420;7.036;2023-08-06T02:22:06;12.30;;;4.70;;
18623;SDS011;9441;51.420;7.036;2023-08-06T02:23:08;6.93;;;4.13;;
18623;SDS011;9441;51.420;7.036;2023-08-06T02:24:11;7.00;;;4.38;;
18623;SDS011;9441;51.420;7.036;2023-08-06T02:25:14;6.50;;;4.30;;
18623;SDS011;9441;51.420;7.036;2023-08-06T02:26:17;7.68;;;4.45;;
18623;SDS011;9441;51.420;7.036;2023-08-06T02:27:19;5.15;;;4.35;;
18623;SDS011;9441;51.420;7.036;2023-08-06T02:28:21;6.20;;;4.40;;
18623;SDS011;9441;51.420;7.036;2023-08-06T02:29:23;6.28;;;4.40;;
18623;SDS011;9441;51.420;7.036;2023-08-06T02:30:24;8.18;;;4.68;;
18623;SDS011;9441;51.420;7.036;2023-08-06T02:31:27;6.05;;;4.50;;
18623;SDS011;9441;51.420;7.036;2023-08-06T02:32:28;6.25;;;4.43;;
18623;SDS011;9441;51.420;7.036;2023-08-06T02:33:34;8.10;;;4.07;;
18623;SDS011;9441;51.420;7.036;2023-08-06T02:34:35;7.55;;;4.32;;
18623;SDS011;9441;51.420;7.036;2023-08-06T02:35:38;6.57;;;4.22;;
18623;SDS011;9441;51.420;7.036;2023-08-06T02:36:39;13.57;;;4.80;;
18623;SDS011;9441;51.420;7.036;2023-08-06T02:37:41;7.15;;;4.45;;
18623;SDS011;9441;51.420;7.036;2023-08-06T02:38:42;7.83;;;4.60;;
18623;SDS011;9441;51.420;7.036;2023-08-06T02:39:46;9.57;;;4.47;;
18623;SDS011;9441;51.420;7.036;2023-08-06T02:40:47;13.20;;;4.85;;
18623;SDS011;9441;51.420;7.036;2023-08-06T02:41:49;7.40;;;4.60;;
18623;SDS011;9441;51.420;7.036;2023-08-06T02:42:51;8.43;;;4.32;;
18623;SDS011;9441;51.420;7.036;2023-08-06T02:43:52;7.03;;;4.78;;
18623;SDS011;9441;51.420;7.036;2023-08-06T02:44:55;8.50;;;4.35;;
18623;SDS011;9441;51.420;7.036;2023-08-06T02:45:56;7.20;;;4.53;;
18623;SDS011;9441;51.420;7.036;2023-08-06T02:46:58;7.20;;;4.30;;
18623;SDS011;9441;51.420;7.036;2023-08-06T02:48:00;8.47;;;4.60;;
18623;SDS011;9441;51.420;7.036;2023-08-06T02:49:03;9.70;;;4.80;;
18623;SDS011;9441;51.420;7.036;2023-08-06T02:50:04;7.43;;;4.60;;
18623;SDS011;9441;51.420;7.036;2023-08-06T02:51:07;8.98;;;4.75;;
18623;SDS011;9441;51.420;7.036;2023-08-06T02:52:08;6.88;;;4.50;;
18623;SDS011;9441;51.420;7.036;2023-08-06T02:53:11;9.47;;;5.10;;
18623;SDS011;9441;51.420;7.036;2023-08-06T02:54:12;11.55;;;4.45;;
18623;SDS011;9441;51.420;7.036;2023-08-06T02:55:16;7.07;;;4.43;;
18623;SDS011;9441;51.420;7.036;2023-08-06T02:56:20;8.85;;;4.70;;
18623;SDS011;9441;51.420;7.036;2023-08-06T02:57:37;8.40;;;4.50;;
18623;SDS011;9441;51.420;7.036;2023-08-06T02:58:39;7.33;;;4.43;;
18623;SDS011;9441;51.420;7.036;2023-08-06T02:59:54;7.57;;;4.30;;
18623;SDS011;9441;51.420;7.036;2023-08-06T03:01:00;8.35;;;4.40;;
18623;SDS011;9441;51.420;7.036;2023-08-06T03:02:03;5.63;;;4.20;;
18623;SDS011;9441;51.420;7.036;2023-08-06T03:03:20;8.00;;;4.60;;
18623;SDS011;9441;51.420;7.036;2023-08-06T03:04:37;13.53;;;4.20;;
18623;SDS011;9441;51.420;7.036;2023-08-06T03:06:05;7.73;;;4.63;;
18623;SDS011;9441;51.420;7.036;2023-08-06T03:07:46;10.00;;;4.50;;
18623;SDS011;9441;51.420;7.036;2023-08-06T03:09:28;9.70;;;4.60;;
18623;SDS011;9441;51.420;7.036;2023-08-06T03:11:11;7.60;;;4.30;;
18623;SDS011;9441;51.420;7.036;2023-08-06T03:12:27;7.00;;;4.00;;
18623;SDS011;9441;51.420;7.036;2023-08-06T03:13:29;6.50;;;4.83;;
18623;SDS011;9441;51.420;7.036;2023-08-06T03:14:32;7.60;;;4.20;;
18623;SDS011;9441;51.420;7.036;2023-08-06T03:15:33;7.07;;;4.57;;
18623;SDS011;9441;51.420;7.036;2023-08-06T03:16:36;6.70;;;4.63;;
18623;SDS011;9441;51.420;7.036;2023-08-06T03:17:37;8.23;;;4.37;;
18623;SDS011;9441;51.420;7.036;2023-08-06T03:18:41;6.93;;;4.17;;
18623;SDS011;9441;51.420;7.036;2023-08-06T03:19:43;6.20;;;4.30;;
18623;SDS011;9441;51.420;7.036;2023-08-06T03:20:46;6.57;;;4.07;;
18623;SDS011;9441;51.420;7.036;2023-08-06T03:21:48;8.43;;;4.60;;
18623;SDS011;9441;51.420;7.036;2023-08-06T03:22:50;12.40;;;5.50;;
18623;SDS011;9441;51.420;7.036;2023-08-06T03:23:52;12.33;;;5.73;;
18623;SDS011;9441;51.420;7.036;2023-08-06T03:24:57;9.93;;;5.73;;
18623;SDS011;9441;51.420;7.036;2023-08-06T03:26:00;8.13;;;5.77;;
18623;SDS011;9441;51.420;7.036;2023-08-06T03:27:05;8.90;;;4.87;;
18623;SDS011;9441;51.420;7.036;2023-08-06T03:28:07;7.67;;;5.00;;
18623;SDS011;9441;51.420;7.036;2023-08-06T03:29:09;6.40;;;4.80;;
18623;SDS011;9441;51.420;7.036;2023-08-06T03:30:11;8.07;;;4.78;;
18623;SDS011;9441;51.420;7.036;2023-08-06T03:31:14;7.53;;;4.47;;
18623;SDS011;9441;51.420;7.036;2023-08-06T03:32:17;8.40;;;4.43;;
18623;SDS011;9441;51.420;7.036;2023-08-06T03:33:20;6.53;;;4.33;;
18623;SDS011;9441;51.420;7.036;2023-08-06T03:34:22;5.87;;;4.60;;
18623;SDS011;9441;51.420;7.036;2023-08-06T03:35:25;10.53;;;5.10;;
18623;SDS011;9441;51.420;7.036;2023-08-06T03:36:26;8.50;;;4.37;;
18623;SDS011;9441;51.420;7.036;2023-08-06T03:37:29;6.57;;;4.30;;
18623;SDS011;9441;51.420;7.036;2023-08-06T03:38:30;7.60;;;4.40;;
18623;SDS011;9441;51.420;7.036;2023-08-06T03:39:33;9.07;;;4.00;;
18623;SDS011;9441;51.420;7.036;2023-08-06T03:40:35;7.53;;;4.67;;
18623;SDS011;9441;51.420;7.036;2023-08-06T03:41:37;6.70;;;4.33;;
18623;SDS011;9441;51.420;7.036;2023-08-06T03:42:40;7.57;;;4.57;;
18623;SDS011;9441;51.420;7.036;2023-08-06T03:43:42;12.37;;;4.90;;
18623;SDS011;9441;51.420;7.036;2023-08-06T03:44:48;8.70;;;4.60;;
18623;SDS011;9441;51.420;7.036;2023-08-06T03:45:51;6.27;;;3.90;;
18623;SDS011;9441;51.420;7.036;2023-08-06T03:46:52;9.90;;;4.10;;
18623;SDS011;9441;51.420;7.036;2023-08-06T03:47:55;6.93;;;4.37;;
18623;SDS011;9441;51.420;7.036;2023-08-06T03:48:56;6.37;;;4.43;;
18623;SDS011;9441;51.420;7.036;2023-08-06T03:49:59;7.23;;;4.20;;
18623;SDS011;9441;51.420;7.036;2023-08-06T03:51:01;11.63;;;4.40;;
18623;SDS011;9441;51.420;7.036;2023-08-06T03:52:03;6.27;;;4.10;;
18623;SDS011;9441;51.420;7.036;2023-08-06T03:53:04;8.03;;;4.23;;
18623;SDS011;9441;51.420;7.036;2023-08-06T03:54:07;9.93;;;4.60;;
18623;SDS011;9441;51.420;7.036;2023-08-06T03:55:08;7.53;;;4.20;;
18623;SDS011;9441;51.420;7.036;2023-08-06T03:56:11;7.77;;;4.10;;
18623;SDS011;9441;51.420;7.036;2023-08-06T03:57:13;6.17;;;4.20;;
18623;SDS011;9441;51.420;7.036;2023-08-06T03:58:17;7.93;;;4.10;;
18623;SDS011;9441;51.420;7.036;2023-08-06T03:59:19;6.30;;;4.37;;
18623;SDS011;9441;51.420;7.036;2023-08-06T04:00:21;10.47;;;4.50;;
18623;SDS011;9441;51.420;7.036;2023-08-06T04:01:26;6.87;;;4.60;;
18623;SDS011;9441;51.420;7.036;2023-08-06T04:02:28;5.90;;;4.00;;
18623;SDS011;9441;51.420;7.036;2023-08-06T04:03:30;6.47;;;4.03;;
18623;SDS011;9441;51.420;7.036;2023-08-06T04:04:31;6.60;;;4.20;;
18623;SDS011;9441;51.420;7.036;2023-08-06T04:05:34;7.90;;;4.40;;
18623;SDS011;9441;51.420;7.036;2023-08-06T04:06:35;10.90;;;4.37;;
18623;SDS011;9441;51.420;7.036;2023-08-06T04:07:37;7.53;;;4.67;;
18623;SDS011;9441;51.420;7.036;2023-08-06T04:08:39;8.50;;;4.13;;
18623;SDS011;9441;51.420;7.036;2023-08-06T04:09:52;7.80;;;4.90;;
18623;SDS011;9441;51.420;7.036;2023-08-06T04:10:53;10.13;;;4.27;;
18623;SDS011;9441;51.420;7.036;2023-08-06T04:11:56;9.87;;;4.23;;
18623;SDS011;9441;51.420;7.036;2023-08-06T04:12:58;9.07;;;4.10;;
18623;SDS011;9441;51.420;7.036;2023-08-06T04:14:02;10.27;;;4.63;;
18623;SDS011;9441;51.420;7.036;2023-08-06T04:15:05;6.43;;;4.13;;
18623;SDS011;9441;51.420;7.036;2023-08-06T04:16:07;7.27;;;4.13;;
18623;SDS011;9441;51.420;7.036;2023-08-06T04:17:08;7.97;;;4.53;;
18623;SDS011;9441;51.420;7.036;2023-08-06T04:18:11;5.57;;;4.20;;
18623;SDS011;9441;51.420;7.036;2023-08-06T04:19:12;7.90;;;4.03;;
18623;SDS011;9441;51.420;7.036;2023-08-06T04:20:15;8.63;;;4.30;;
18623;SDS011;9441;51.420;7.036;2023-08-06T04:21:17;8.47;;;4.10;;
18623;SDS011;9441;51.420;7.036;2023-08-06T04:22:21;6.37;;;4.10;;
18623;SDS011;9441;51.420;7.036;2023-08-06T04:23:22;7.43;;;4.60;;
18623;SDS011;9441;51.420;7.036;2023-08-06T04:24:27;7.13;;;4.13;;
18623;SDS011;9441;51.420;7.036;2023-08-06T04:25:29;7.40;;;4.53;;
18623;SDS011;9441;51.420;7.036;2023-08-06T04:26:31;8.10;;;4.20;;
18623;SDS011;9441;51.420;7.036;2023-08-06T04:27:34;5.77;;;3.93;;
18623;SDS011;9441;51.420;7.036;2023-08-06T04:28:37;7.80;;;4.00;;
18623;SDS011;9441;51.420;7.036;2023-08-06T04:29:40;6.27;;;4.03;;
18623;SDS011;9441;51.420;7.036;2023-08-06T04:30:42;7.63;;;4.00;;
18623;SDS011;9441;51.420;7.036;2023-08-06T04:31:44;12.67;;;4.60;;
18623;SDS011;9441;51.420;7.036;2023-08-06T04:32:49;6.20;;;4.17;;
18623;SDS011;9441;51.420;7.036;2023-08-06T04:33:51;7.40;;;4.27;;
18623;SDS011;9441;51.420;7.036;2023-08-06T04:34:55;6.67;;;4.13;;
18623;SDS011;9441;51.420;7.036;2023-08-06T04:35:57;7.33;;;4.10;;
18623;SDS011;9441;51.420;7.036;2023-08-06T04:37:01;4.87;;;3.93;;
18623;SDS011;9441;51.420;7.036;2023-08-06T04:38:02;5.20;;;4.13;;
18623;SDS011;9441;51.420;7.036;2023-08-06T04:39:05;6.33;;;4.13;;
18623;SDS011;9441;51.420;7.036;2023-08-06T04:40:06;6.57;;;4.07;;
18623;SDS011;9441;51.420;7.036;2023-08-06T04:41:09;7.10;;;4.03;;
18623;SDS011;9441;51.420;7.036;2023-08-06T04:42:10;6.87;;;3.93;;
18623;SDS011;9441;51.420;7.036;2023-08-06T04:43:12;8.48;;;3.97;;
18623;SDS011;9441;51.420;7.036;2023-08-06T04:44:14;6.73;;;3.90;;
18623;SDS011;9441;51.420;7.036;2023-08-06T04:45:17;5.43;;;3.93;;
18623;SDS011;9441;51.420;7.036;2023-08-06T04:46:19;7.87;;;4.20;;
18623;SDS011;9441;51.420;7.036;2023-08-06T04:47:21;9.20;;;4.50;;
18623;SDS011;9441;51.420;7.036;2023-08-06T04:48:22;11.30;;;4.30;;
18623;SDS011;9441;51.420;7.036;2023-08-06T04:49:24;5.00;;;4.10;;
18623;SDS011;9441;51.420;7.036;2023-08-06T04:50:26;8.65;;;4.05;;
18623;SDS011;9441;51.420;7.036;2023-08-06T04:51:28;7.80;;;4.30;;
18623;SDS011;9441;51.420;7.036;2023-08-06T04:52:29;8.55;;;4.20;;
18623;SDS011;9441;51.420;7.036;2023-08-06T04:53:32;6.23;;;4.13;;
18623;SDS011;9441;51.420;7.036;2023-08-06T04:54:33;8.83;;;4.63;;
18623;SDS011;9441;51.420;7.036;2023-08-06T04:55:36;9.88;;;4.13;;
18623;SDS011;9441;51.420;7.036;2023-08-06T04:56:37;8.52;;;4.07;;
18623;SDS011;9441;51.420;7.036;2023-08-06T04:57:39;6.47;;;4.60;;
18623;SDS011;9441;51.420;7.036;2023-08-06T04:58:41;8.63;;;4.33;;
18623;SDS011;9441;51.420;7.036;2023-08-06T04:59:43;8.00;;;4.20;;
18623;SDS011;9441;51.420;7.036;2023-08-06T05:00:46;10.00;;;3.93;;
18623;SDS011;9441;51.420;7.036;2023-08-06T05:01:48;7.10;;;3.90;;
18623;SDS011;9441;51.420;7.036;2023-08-06T05:02:49;9.70;;;4.30;;
18623;SDS011;9441;51.420;7.036;2023-08-06T05:03:51;10.03;;;4.17;;
18623;SDS011;9441;51.420;7.036;2023-08-06T05:04:53;5.83;;;4.03;;
18623;SDS011;9441;51.420;7.036;2023-08-06T05:05:54;9.80;;;3.93;;
18623;SDS011;9441;51.420;7.036;2023-08-06T05:06:56;7.90;;;4.32;;
18623;SDS011;9441;51.420;7.036;2023-08-06T05:07:58;9.80;;;4.20;;
18623;SDS011;9441;51.420;7.036;2023-08-06T05:09:00;6.90;;;3.90;;
18623;SDS011;9441;51.420;7.036;2023-08-06T05:10:01;9.03;;;3.67;;
18623;SDS011;9441;51.420;7.036;2023-08-06T05:11:04;6.82;;;4.05;;
18623;SDS011;9441;51.420;7.036;2023-08-06T05:12:06;7.03;;;4.20;;
18623;SDS011;9441;51.420;7.036;2023-08-06T05:13:08;10.13;;;4.17;;
18623;SDS011;9441;51.420;7.036;2023-08-06T05:14:10;5.97;;;4.03;;
18623;SDS011;9441;51.420;7.036;2023-08-06T05:15:12;9.03;;;3.80;;
18623;SDS011;9441;51.420;7.036;2023-08-06T05:16:15;12.15;;;3.67;;
18623;SDS011;9441;51.420;7.036;2023-08-06T05:17:17;11.52;;;4.25;;
18623;SDS011;9441;51.420;7.036;2023-08-06T05:18:18;5.93;;;4.27;;
18623;SDS011;9441;51.420;7.036;2023-08-06T05:19:21;9.60;;;3.92;;
18623;SDS011;9441;51.420;7.036;2023-08-06T05:20:22;6.35;;;3.55;;
18623;SDS011;9441;51.420;7.036;2023-08-06T05:21:24;9.45;;;4.13;;
18623;SDS011;9441;51.420;7.036;2023-08-06T05:22:25;8.05;;;4.57;;
18623;SDS011;9441;51.420;7.036;2023-08-06T05:23:28;8.93;;;3.80;;
18623;SDS011;9441;51.420;7.036;2023-08-06T05:24:29;10.35;;;4.05;;
18623;SDS011;9441;51.420;7.036;2023-08-06T05:25:31;9.82;;;4.30;;
18623;SDS011;9441;51.420;7.036;2023-08-06T05:26:33;6.80;;;4.15;;
18623;SDS011;9441;51.420;7.036;2023-08-06T05:27:35;5.93;;;3.95;;
18623;SDS011;9441;51.420;7.036;2023-08-06T05:28:36;8.57;;;4.30;;
18623;SDS011;9441;51.420;7.036;2023-08-06T05:29:38;6.00;;;3.75;;
18623;SDS011;9441;51.420;7.036;2023-08-06T05:30:40;4.88;;;3.78;;
18623;SDS011;9441;51.420;7.036;2023-08-06T05:31:42;9.77;;;4.22;;
18623;SDS011;9441;51.420;7.036;2023-08-06T05:32:45;7.70;;;4.13;;
18623;SDS011;9441;51.420;7.036;2023-08-06T05:33:46;10.25;;;3.90;;
18623;SDS011;9441;51.420;7.036;2023-08-06T05:34:48;6.03;;;3.97;;
18623;SDS011;9441;51.420;7.036;2023-08-06T05:35:50;6.30;;;4.07;;
18623;SDS011;9441;51.420;7.036;2023-08-06T05:36:52;12.60;;;4.40;;
18623;SDS011;9441;51.420;7.036;2023-08-06T05:37:53;7.18;;;3.72;;
18623;SDS011;9441;51.420;7.036;2023-08-06T05:38:55;9.63;;;4.68;;
18623;SDS011;9441;51.420;7.036;2023-08-06T05:39:57;8.07;;;4.30;;
18623;SDS011;9441;51.420;7.036;2023-08-06T05:40:59;10.63;;;3.88;;
18623;SDS011;9441;51.420;7.036;2023-08-06T05:42:00;9.02;;;3.97;;
18623;SDS011;9441;51.420;7.036;2023-08-06T05:43:03;6.47;;;3.88;;
18623;SDS011;9441;51.420;7.036;2023-08-06T05:44:04;7.15;;;3.78;;
18623;SDS011;9441;51.420;7.036;2023-08-06T05:45:07;5.60;;;3.78;;
18623;SDS011;9441;51.420;7.036;2023-08-06T05:46:08;6.35;;;3.65;;
18623;SDS011;9441;51.420;7.036;2023-08-06T05:47:11;5.18;;;3.58;;
18623;SDS011;9441;51.420;7.036;2023-08-06T05:48:14;6.22;;;3.83;;
18623;SDS011;9441;51.420;7.036;2023-08-06T05:49:15;7.43;;;4.05;;
18623;SDS011;9441;51.420;7.036;2023-08-06T05:50:17;6.43;;;3.80;;
18623;SDS011;9441;51.420;7.036;2023-08-06T05:51:19;6.43;;;4.07;;
18623;SDS011;9441;51.420;7.036;2023-08-06T05:52:21;5.18;;;3.58;;
18623;SDS011;9441;51.420;7.036;2023-08-06T05:53:22;7.63;;;3.70;;
18623;SDS011;9441;51.420;7.036;2023-08-06T05:54:25;8.23;;;3.92;;
18623;SDS011;9441;51.420;7.036;2023-08-06T05:55:26;6.43;;;3.80;;
18623;SDS011;9441;51.420;7.036;2023-08-06T05:56:28;7.25;;;3.35;;
18623;SDS011;9441;51.420;7.036;2023-08-06T05:57:30;4.88;;;3.80;;
18623;SDS011;9441;51.420;7.036;2023-08-06T05:58:32;10.38;;;4.13;;
18623;SDS011;9441;51.420;7.036;2023-08-06T05:59:33;6.88;;;3.85;;
18623;SDS011;9441;51.420;7.036;2023-08-06T06:00:36;9.90;;;3.78;;
18623;SDS011;9441;51.420;7.036;2023-08-06T06:01:37;8.25;;;3.72;;
18623;SDS011;9441;51.420;7.036;2023-08-06T06:02:41;11.10;;;3.55;;
18623;SDS011;9441;51.420;7.036;2023-08-06T06:03:42;5.50;;;3.42;;
18623;SDS011;9441;51.420;7.036;2023-08-06T06:04:44;8.82;;;3.80;;
18623;SDS011;9441;51.420;7.036;2023-08-06T06:05:45;7.95;;;3.00;;
18623;SDS011;9441;51.420;7.036;2023-08-06T06:06:48;7.47;;;3.58;;
18623;SDS011;9441;51.420;7.036;2023-08-06T06:07:49;4.40;;;3.03;;
18623;SDS011;9441;51.420;7.036;2023-08-06T06:08:51;3.67;;;2.92;;
18623;SDS011;9441;51.420;7.036;2023-08-06T06:09:53;9.07;;;2.88;;
18623;SDS011;9441;51.420;7.036;2023-08-06T06:10:55;4.05;;;3.17;;
18623;SDS011;9441;51.420;7.036;2023-08-06T06:11:56;9.13;;;3.72;;
18623;SDS011;9441;51.420;7.036;2023-08-06T06:12:58;6.97;;;3.45;;
18623;SDS011;9441;51.420;7.036;2023-08-06T06:14:00;4.57;;;3.58;;
18623;SDS011;9441;51.420;7.036;2023-08-06T06:15:01;5.22;;;3.80;;
18623;SDS011;9441;51.420;7.036;2023-08-06T06:16:04;4.78;;;2.80;;
18623;SDS011;9441;51.420;7.036;2023-08-06T06:17:05;10.13;;;3.58;;
18623;SDS011;9441;51.420;7.036;2023-08-06T06:18:09;4.60;;;3.13;;
18623;SDS011;9441;51.420;7.036;2023-08-06T06:19:10;9.73;;;3.35;;
18623;SDS011;9441;51.420;7.036;2023-08-06T06:20:12;5.55;;;3.05;;
18623;SDS011;9441;51.420;7.036;2023-08-06T06:21:14;6.55;;;3.03;;
18623;SDS011;9441;51.420;7.036;2023-08-06T06:22:16;4.28;;;3.05;;
18623;SDS011;9441;51.420;7.036;2023-08-06T06:23:17;4.90;;;2.83;;
18623;SDS011;9441;51.420;7.036;2023-08-06T06:24:19;5.65;;;2.90;;
18623;SDS011;9441;51.420;7.036;2023-08-06T06:25:21;6.22;;;3.10;;